Time;durP1;ratioP1;P1;durP2;ratioP2;P2;SDS_P1;SDS_P2;PMS_P1;PMS_P2;Temp;Humidity;BMP_temperature;BMP_pressure;BME280_temperature;BME280_humidity;BME280_pressure;Samples;Min_cycle;Max_cycle;Signal;HPM_P1;HPM_P2
2022/07/31 00:01:44;;;;;;;4.40;1.72;;;;;;;18.43;68.42;101339.20;1717189;82;21044;-84
2022/07/31 00:04:11;;;;;;;6.95;2.20;;;;;;;18.41;68.46;101340.98;1716355;82;21079;-84
2022/07/31 00:06:40;;;;;;;8.00;2.47;;;;;;;18.41;68.58;101339.23;1691558;83;21111;-84
2022/07/31 00:09:06;;;;;;;3.15;1.60;;;;;;;18.39;68.70;101340.09;1685341;83;23028;-84
2022/07/31 00:11:33;;;;;;;4.28;1.47;;;;;;;18.38;68.71;101333.00;1671264;84;21138;-89
2022/07/31 00:14:00;;;;;;;5.60;2.42;;;;;;;18.35;68.76;101333.86;1687594;83;21121;-84
2022/07/31 00:16:27;;;;;;;7.03;1.70;;;;;;;18.35;68.97;101334.31;1705381;83;21141;-89
2022/07/31 00:18:56;;;;;;;8.90;2.40;;;;;;;18.33;69.04;101328.97;1705028;82;21089;-84
2022/07/31 00:21:23;;;;;;;3.90;1.60;;;;;;;18.32;69.20;101331.21;1704772;83;23433;-89
2022/07/31 00:23:50;;;;;;;3.85;1.47;;;;;;;18.30;69.31;101330.32;1674569;82;21141;-84
2022/07/31 00:26:17;;;;;;;11.75;2.37;;;;;;;18.27;69.40;101330.30;1660545;84;21123;-84
2022/07/31 00:28:46;;;;;;;5.40;1.90;;;;;;;18.25;69.65;101324.96;1649942;85;21155;-84
2022/07/31 00:31:12;;;;;;;6.47;1.67;;;;;;;18.23;69.63;101330.73;1650306;84;21485;-89
2022/07/31 00:33:39;;;;;;;3.50;1.42;;;;;;;18.21;69.96;101328.52;1650361;85;21750;-88
2022/07/31 00:36:07;;;;;;;7.80;4.42;;;;;;;18.20;69.97;101327.17;1649676;85;21125;-84
2022/07/31 00:38:33;;;;;;;6.00;1.60;;;;;;;18.19;70.06;101329.41;1649863;85;21105;-89
2022/07/31 00:41:01;;;;;;;6.75;1.95;;;;;;;18.17;70.17;101327.15;1648760;85;21148;-84
2022/07/31 00:43:28;;;;;;;4.65;1.30;;;;;;;18.17;70.32;101328.48;1649298;85;21101;-84
2022/07/31 00:46:05;;;;;;;5.17;1.35;;;;;;;18.16;70.45;101322.72;1674406;84;22429;-88
2022/07/31 00:48:32;;;;;;;4.17;2.17;;;;;;;18.15;70.51;101320.51;1671867;84;21359;-84
2022/07/31 00:50:59;;;;;;;6.12;1.92;;;;;;;18.15;70.48;101316.93;1655427;85;21172;-84
2022/07/31 00:53:26;;;;;;;7.47;2.00;;;;;;;18.15;70.61;101316.93;1661495;85;21647;-89
2022/07/31 00:55:53;;;;;;;3.12;1.85;;;;;;;18.13;70.59;101306.30;1669428;84;21709;-89
2022/07/31 00:58:19;;;;;;;8.50;1.90;;;;;;;18.14;70.60;101304.06;1650198;85;21755;-84
2022/07/31 01:00:46;;;;;;;5.35;1.87;;;;;;;18.13;70.66;101306.30;1649330;84;21108;-90
2022/07/31 01:03:14;;;;;;;5.97;1.27;;;;;;;18.12;70.69;101309.83;1655174;84;21113;-89
2022/07/31 01:05:41;;;;;;;8.40;2.47;;;;;;;18.11;70.65;101303.16;1658586;85;21639;-84
2022/07/31 01:08:07;;;;;;;4.58;1.57;;;;;;;18.10;70.71;101308.94;1658485;84;21172;-84
2022/07/31 01:10:55;;;;;;;5.92;1.55;;;;;;;18.09;70.75;101303.15;1666817;84;21758;-84
2022/07/31 01:13:39;;;;;;;7.12;1.50;;;;;;;18.09;70.83;101298.27;1667554;84;21145;-84
2022/07/31 01:16:06;;;;;;;3.87;1.35;;;;;;;18.08;70.82;101296.52;1678199;84;21597;-84
2022/07/31 01:18:35;;;;;;;4.10;1.50;;;;;;;18.05;70.83;101292.92;1647155;85;21605;-84
2022/07/31 01:21:05;;;;;;;4.95;1.30;;;;;;;18.04;70.82;101293.83;1667979;85;21143;-84
2022/07/31 01:24:13;;;;;;;3.15;1.30;;;;;;;18.03;70.86;101293.36;1658717;85;22567;-84
2022/07/31 01:27:00;;;;;;;5.87;1.67;;;;;;;18.01;70.91;101287.15;1650251;84;21111;-84
2022/07/31 01:29:41;;;;;;;3.65;1.40;;;;;;;17.99;71.07;101289.38;1650246;85;21303;-84
2022/07/31 01:32:11;;;;;;;3.15;1.60;;;;;;;17.97;71.11;101295.14;1655725;84;21104;-84
2022/07/31 01:34:48;;;;;;;6.15;1.70;;;;;;;17.96;71.16;101290.69;1663027;84;21152;-88
2022/07/31 01:37:25;;;;;;;5.95;1.60;;;;;;;17.95;71.19;101292.47;1649488;85;21745;-89
2022/07/31 01:40:05;;;;;;;4.28;1.30;;;;;;;17.94;71.15;101290.67;1649781;84;21124;-89
2022/07/31 01:42:31;;;;;;;3.42;1.65;;;;;;;17.93;71.23;101290.24;1649160;85;21144;-90
2022/07/31 01:45:00;;;;;;;5.95;1.40;;;;;;;17.93;71.20;101289.36;1664951;84;21185;-89
2022/07/31 01:47:27;;;;;;;6.70;1.65;;;;;;;17.85;71.21;101276.02;1676764;84;21093;-89
2022/07/31 01:49:54;;;;;;;5.05;1.60;;;;;;;17.92;71.26;101286.23;1662974;84;21741;-84
2022/07/31 01:52:22;;;;;;;4.58;1.42;;;;;;;17.90;71.27;101282.23;1653083;85;21144;-84
2022/07/31 01:54:48;;;;;;;3.70;1.62;;;;;;;17.90;71.26;101279.56;1676632;84;21351;-90
2022/07/31 01:57:15;;;;;;;3.30;1.52;;;;;;;17.90;71.26;101283.56;1675089;84;21132;-90
2022/07/31 01:59:42;;;;;;;4.72;1.20;;;;;;;17.88;71.31;101286.21;1619187;86;21123;-91
2022/07/31 02:02:09;;;;;;;2.55;1.30;;;;;;;17.89;71.35;101284.47;1648697;85;22562;-90
2022/07/31 02:04:35;;;;;;;5.97;1.60;;;;;;;17.89;71.37;101283.13;1655656;84;21183;-90
2022/07/31 02:07:06;;;;;;;4.17;1.70;;;;;;;17.88;71.34;101282.67;1676012;84;21123;-90
2022/07/31 02:09:33;;;;;;;3.22;1.50;;;;;;;17.87;71.39;101281.79;1651361;84;21222;-90
2022/07/31 02:12:00;;;;;;;15.55;12.88;;;;;;;17.87;71.37;101278.25;1649869;84;21137;-90
2022/07/31 02:14:27;;;;;;;7.83;6.75;;;;;;;17.87;71.34;101274.25;1648134;84;21983;-90
2022/07/31 02:16:54;;;;;;;9.03;4.00;;;;;;;17.86;71.41;101265.80;1650636;85;21136;-84
2022/07/31 02:19:21;;;;;;;8.20;5.00;;;;;;;17.85;71.38;101267.58;1648148;85;21080;-84
2022/07/31 02:21:48;;;;;;;6.72;5.70;;;;;;;17.85;71.39;101267.58;1650258;85;21168;-83
2022/07/31 02:24:16;;;;;;;17.80;12.35;;;;;;;17.85;71.37;101269.36;1662229;84;21096;-90
2022/07/31 02:26:42;;;;;;;10.93;6.30;;;;;;;17.83;71.44;101260.42;1656307;85;21786;-84
2022/07/31 02:29:10;;;;;;;7.33;3.90;;;;;;;17.83;71.42;101257.75;1639880;85;21076;-83
2022/07/31 02:31:37;;;;;;;6.40;3.02;;;;;;;17.81;71.44;101255.11;1659092;85;21084;-89
2022/07/31 02:34:04;;;;;;;9.58;3.30;;;;;;;17.83;71.45;101256.42;1650498;85;21084;-88
2022/07/31 02:36:32;;;;;;;3.55;1.82;;;;;;;17.82;71.54;101255.55;1650276;84;21068;-90
2022/07/31 02:38:58;;;;;;;7.65;3.10;;;;;;;17.82;71.45;101249.34;1654404;85;21702;-89
2022/07/31 02:41:25;;;;;;;3.98;1.82;;;;;;;17.81;71.46;101248.45;1663651;85;21603;-89
2022/07/31 02:43:52;;;;;;;4.90;3.00;;;;;;;17.82;71.46;101245.34;1650075;85;21100;-84
2022/07/31 02:46:18;;;;;;;4.83;2.02;;;;;;;17.81;71.45;101237.80;1649595;85;21121;-84
2022/07/31 02:48:45;;;;;;;3.80;1.70;;;;;;;17.82;71.39;101238.69;1649946;85;21096;-88
2022/07/31 02:51:13;;;;;;;8.45;2.17;;;;;;;17.82;71.36;101232.03;1649886;85;21805;-84
2022/07/31 02:53:40;;;;;;;3.02;1.98;;;;;;;17.83;71.30;101227.13;1650026;85;21109;-83
2022/07/31 02:56:08;;;;;;;3.75;2.05;;;;;;;17.84;71.29;101231.17;1652053;85;21101;-88
2022/07/31 02:58:42;;;;;;;9.75;3.15;;;;;;;17.83;71.25;101228.05;1628752;85;21092;-88
2022/07/31 03:01:09;;;;;;;5.70;1.80;;;;;;;17.84;71.22;101225.84;1650296;85;21123;-84
2022/07/31 03:03:36;;;;;;;8.45;1.90;;;;;;;17.84;71.21;101228.50;1650336;85;21816;-89
2022/07/31 03:06:03;;;;;;;7.40;1.55;;;;;;;17.85;71.21;101228.09;1649053;84;22327;-89
2022/07/31 03:08:30;;;;;;;3.67;1.60;;;;;;;17.85;71.25;101231.63;1651182;85;21100;-84
2022/07/31 03:11:07;;;;;;;5.72;1.62;;;;;;;17.85;71.20;101226.76;1650300;85;21136;-88
2022/07/31 03:13:35;;;;;;;3.10;1.30;;;;;;;17.85;71.17;101225.42;1650396;85;21105;-84
2022/07/31 03:16:05;;;;;;;4.53;1.50;;;;;;;17.84;71.12;101224.93;1650227;84;21764;-89
2022/07/31 03:18:32;;;;;;;6.37;1.75;;;;;;;17.82;71.12;101224.92;1629160;85;21088;-89
2022/07/31 03:20:59;;;;;;;4.47;1.75;;;;;;;17.83;71.08;101224.47;1668816;84;21290;-84
2022/07/31 03:23:27;;;;;;;7.30;2.35;;;;;;;17.84;71.09;101226.27;1651679;84;21096;-90
2022/07/31 03:25:54;;;;;;;5.47;1.87;;;;;;;17.84;71.08;101227.59;1660291;84;21112;-83
2022/07/31 03:28:21;;;;;;;4.62;1.87;;;;;;;17.85;71.02;101228.97;1645589;84;21761;-89
2022/07/31 03:30:50;;;;;;;3.70;1.70;;;;;;;17.85;71.03;101222.77;1645444;84;21633;-89
2022/07/31 03:33:17;;;;;;;5.22;1.82;;;;;;;17.84;71.08;101228.92;1645614;85;21101;-89
2022/07/31 03:35:43;;;;;;;4.28;1.82;;;;;;;17.85;71.02;101227.64;1644654;84;21104;-89
2022/07/31 03:38:11;;;;;;;6.22;1.52;;;;;;;17.85;70.99;101226.30;1645714;85;21124;-84
2022/07/31 03:40:37;;;;;;;5.00;1.70;;;;;;;17.85;70.97;101226.30;1632751;87;21756;-90
2022/07/31 03:43:04;;;;;;;5.05;1.80;;;;;;;17.85;70.84;101227.64;1650583;85;21085;-89
2022/07/31 03:45:31;;;;;;;7.28;2.17;;;;;;;17.87;70.84;101230.31;1650584;84;21140;-90
2022/07/31 03:47:58;;;;;;;5.80;2.17;;;;;;;17.87;70.84;101230.31;1650362;84;21129;-90
2022/07/31 03:50:25;;;;;;;4.90;1.90;;;;;;;17.88;70.81;101229.41;1649587;85;21804;-90
2022/07/31 03:52:52;;;;;;;5.10;1.50;;;;;;;17.88;70.72;101232.06;1650251;85;22704;-90
2022/07/31 03:55:19;;;;;;;6.80;1.82;;;;;;;17.90;70.62;101225.42;1650675;85;21677;-90
2022/07/31 03:57:46;;;;;;;2.35;1.60;;;;;;;17.90;70.53;101224.97;1669859;85;21093;-89
2022/07/31 04:00:14;;;;;;;5.03;1.77;;;;;;;17.92;70.37;101223.64;1650069;85;21847;-90
2022/07/31 04:02:41;;;;;;;5.97;1.82;;;;;;;17.96;70.21;101229.42;1655149;85;21144;-89
2022/07/31 04:05:09;;;;;;;4.67;1.50;;;;;;;17.98;70.18;101225.89;1665121;85;21744;-84
2022/07/31 04:07:36;;;;;;;2.70;1.62;;;;;;;18.01;70.04;101224.55;1664101;85;21085;-84
2022/07/31 04:10:03;;;;;;;5.92;2.00;;;;;;;18.01;69.95;101219.67;1657149;85;21147;-84
2022/07/31 04:12:29;;;;;;;4.33;1.80;;;;;;;18.03;69.91;101221.44;1667323;84;21353;-87
2022/07/31 04:14:56;;;;;;;4.40;1.62;;;;;;;18.04;69.82;101219.23;1665652;84;21112;-83
2022/07/31 04:17:23;;;;;;;3.80;1.77;;;;;;;18.06;69.71;101218.80;1657739;85;21749;-89
2022/07/31 04:19:49;;;;;;;6.97;1.90;;;;;;;18.10;69.60;101217.48;1660921;85;21100;-84
2022/07/31 04:22:16;;;;;;;6.37;1.70;;;;;;;18.12;69.43;101221.91;1660248;85;21133;-84
2022/07/31 04:24:43;;;;;;;5.60;1.57;;;;;;;18.15;69.29;101219.69;1673649;85;21092;-88
2022/07/31 04:27:10;;;;;;;6.85;1.70;;;;;;;18.17;69.17;101210.83;1653658;83;21108;-84
2022/07/31 04:29:37;;;;;;;3.00;1.50;;;;;;;18.21;69.08;101221.92;1667725;85;21767;-89
2022/07/31 04:32:06;;;;;;;5.05;1.65;;;;;;;18.22;68.97;101218.36;1656865;85;21610;-88
2022/07/31 04:34:33;;;;;;;4.45;2.08;;;;;;;18.25;68.82;101217.48;1661915;85;21155;-84
2022/07/31 04:36:59;;;;;;;2.35;1.62;;;;;;;18.29;68.72;101217.94;1673666;85;21140;-83
2022/07/31 04:39:26;;;;;;;5.37;1.70;;;;;;;18.32;68.56;101223.27;1690915;82;21698;-90
2022/07/31 04:41:53;;;;;;;3.15;1.65;;;;;;;18.28;68.37;101207.27;1669326;83;21182;-84
2022/07/31 04:44:19;;;;;;;6.72;2.42;;;;;;;18.39;68.25;101220.16;1661275;85;21092;-89
2022/07/31 04:46:46;;;;;;;4.58;1.60;;;;;;;18.43;68.10;101225.92;1668813;85;21107;-84
2022/07/31 04:49:13;;;;;;;2.20;1.27;;;;;;;18.46;67.87;101216.16;1678228;84;21623;-84
2022/07/31 04:51:41;;;;;;;7.83;1.60;;;;;;;18.50;67.66;101221.49;1678881;84;21069;-90
2022/07/31 04:54:09;;;;;;;5.15;1.72;;;;;;;18.51;67.46;101225.95;1665337;85;21784;-89
2022/07/31 04:56:40;;;;;;;7.42;1.60;;;;;;;18.54;67.35;101220.59;1664146;85;21108;-84
2022/07/31 04:59:06;;;;;;;6.60;1.45;;;;;;;18.55;67.18;101227.27;1666522;85;21374;-88
2022/07/31 05:01:33;;;;;;;4.75;2.05;;;;;;;18.59;66.96;101226.37;1662550;85;21637;-83
2022/07/31 05:04:06;;;;;;;3.27;1.35;;;;;;;18.61;66.74;101223.25;1658105;84;21140;-88
2022/07/31 05:06:42;;;;;;;2.75;1.70;;;;;;;18.63;66.62;101225.47;1682099;83;21758;-84
2022/07/31 05:09:11;;;;;;;5.53;1.40;;;;;;;18.65;66.48;101223.69;1671987;85;21105;-84
2022/07/31 05:11:39;;;;;;;3.90;1.30;;;;;;;18.70;66.39;101225.04;1670081;84;21633;-84
2022/07/31 05:14:07;;;;;;;4.65;1.47;;;;;;;18.74;66.28;101223.27;1669519;84;21609;-83
2022/07/31 05:16:34;;;;;;;4.05;1.60;;;;;;;18.78;66.06;101227.24;1668426;85;21105;-83
2022/07/31 05:19:01;;;;;;;4.62;1.30;;;;;;;18.82;65.85;101224.16;1668354;84;21223;-84
2022/07/31 05:21:33;;;;;;;5.50;1.30;;;;;;;18.87;65.51;101225.50;1662086;84;21129;-83
2022/07/31 05:23:57;;;;;;;4.42;1.62;;;;;;;18.93;65.25;101225.48;1666432;85;21581;-83
2022/07/31 05:26:24;;;;;;;6.65;1.65;;;;;;;18.95;64.98;101223.25;1673688;84;21084;-89
2022/07/31 05:28:52;;;;;;;5.00;1.57;;;;;;;19.00;64.88;101222.80;1659040;85;21084;-83
2022/07/31 05:31:19;;;;;;;2.77;1.40;;;;;;;19.07;64.79;101225.45;1673606;85;21623;-83
2022/07/31 05:33:47;;;;;;;2.52;1.72;;;;;;;19.11;64.66;101220.56;1660123;85;21151;-89
2022/07/31 05:36:14;;;;;;;3.87;1.35;;;;;;;19.14;64.55;101221.42;1669944;84;21152;-89
2022/07/31 05:38:43;;;;;;;5.22;1.55;;;;;;;19.20;64.59;101224.09;1679174;83;21157;-84
2022/07/31 05:41:11;;;;;;;3.55;1.67;;;;;;;19.25;64.40;101225.85;1657258;85;21160;-83
2022/07/31 05:43:37;;;;;;;3.95;1.40;;;;;;;19.28;64.34;101228.52;1672979;85;21744;-83
2022/07/31 05:46:07;;;;;;;4.37;1.60;;;;;;;19.31;64.00;101228.03;1651961;86;21092;-89
2022/07/31 05:48:33;;;;;;;3.70;1.57;;;;;;;19.33;63.97;101228.03;1666009;83;22290;-84
2022/07/31 05:51:00;;;;;;;4.12;1.42;;;;;;;19.40;63.85;101226.67;1673140;83;21629;-84
2022/07/31 05:53:27;;;;;;;5.22;1.72;;;;;;;19.53;63.77;101231.98;1657411;85;21168;-90
2022/07/31 05:55:54;;;;;;;3.95;1.30;;;;;;;19.59;63.52;101229.27;1671459;84;23156;-86
2022/07/31 05:58:20;;;;;;;2.42;1.42;;;;;;;19.66;63.38;101226.13;1657371;84;21105;-84
2022/07/31 06:00:48;;;;;;;4.37;1.45;;;;;;;19.74;63.40;101224.34;1660302;85;21176;-84
2022/07/31 06:03:15;;;;;;;7.62;2.67;;;;;;;19.85;63.38;101237.19;1664604;85;21084;-90
2022/07/31 06:05:42;;;;;;;5.08;2.55;;;;;;;19.92;63.32;101225.57;1667474;84;21116;-84
2022/07/31 06:08:09;;;;;;;7.15;1.90;;;;;;;19.99;63.31;101227.77;1664954;85;21870;-84
2022/07/31 06:10:36;;;;;;;3.33;2.30;;;;;;;20.06;63.17;101224.59;1669068;84;21637;-84
2022/07/31 06:13:04;;;;;;;7.28;1.60;;;;;;;20.07;63.07;101228.59;1663629;85;21717;-89
2022/07/31 06:15:31;;;;;;;8.28;2.30;;;;;;;20.07;62.83;101229.94;1670915;85;21096;-84
2022/07/31 06:17:58;;;;;;;2.77;1.80;;;;;;;20.09;62.92;101225.47;1668014;85;21328;-89
2022/07/31 06:20:24;;;;;;;3.77;2.05;;;;;;;20.16;62.83;101237.89;1665680;85;22424;-84
2022/07/31 06:22:51;;;;;;;3.58;1.47;;;;;;;20.23;62.86;101231.16;1660648;85;21661;-90
2022/07/31 06:25:18;;;;;;;13.48;9.90;;;;;;;20.32;62.63;101225.75;1669474;85;21060;-90
2022/07/31 06:27:45;;;;;;;4.35;2.35;;;;;;;20.41;62.46;101223.00;1615048;87;21426;-90
2022/07/31 06:30:13;;;;;;;3.77;1.67;;;;;;;20.52;62.12;101221.58;1662405;85;22270;-84
2022/07/31 06:32:40;;;;;;;4.50;1.20;;;;;;;20.61;61.93;101221.54;1663175;84;23277;-89
2022/07/31 06:35:07;;;;;;;2.80;1.52;;;;;;;20.67;61.57;101236.19;1656010;84;21049;-89
2022/07/31 06:37:34;;;;;;;2.50;1.35;;;;;;;20.72;61.48;101224.09;1659191;85;21673;-89
2022/07/31 06:40:01;;;;;;;3.65;1.98;;;;;;;20.79;61.15;101227.15;1660152;84;21147;-89
2022/07/31 06:45:19;;;;;;;5.28;1.80;;;;;;;20.98;60.84;101222.49;1883353;75;22190;-90
2022/07/31 06:47:46;;;;;;;4.35;1.42;;;;;;;21.03;60.75;101228.70;1857362;76;21065;-90
2022/07/31 06:50:13;;;;;;;2.58;1.40;;;;;;;20.99;60.25;101217.59;1863302;76;22719;-90
2022/07/31 06:52:40;;;;;;;5.05;1.62;;;;;;;21.06;59.93;101228.67;1858919;76;21033;-89
2022/07/31 06:55:08;;;;;;;3.90;1.17;;;;;;;20.91;59.83;101190.01;1861265;76;21678;-90
2022/07/31 06:57:37;;;;;;;2.35;1.20;;;;;;;21.11;59.22;101230.83;1863601;76;21033;-90
2022/07/31 07:00:05;;;;;;;5.25;1.72;;;;;;;21.11;59.22;101230.83;1863128;76;21131;-91
2022/07/31 07:02:32;;;;;;;2.62;1.30;;;;;;;21.21;58.65;101214.66;1863430;76;21755;-91
2022/07/31 07:05:02;;;;;;;2.83;1.50;;;;;;;21.21;58.65;101214.66;1830063;76;22499;-90
2022/07/31 07:07:29;;;;;;;2.55;1.47;;;;;;;21.18;58.69;101198.66;1859171;76;21062;-91
2022/07/31 07:09:56;;;;;;;4.08;1.40;;;;;;;21.35;58.40;101216.73;1861853;76;21108;-90
2022/07/31 07:12:22;;;;;;;3.02;1.90;;;;;;;21.34;58.18;101222.98;1857452;76;21061;-91
2022/07/31 07:14:49;;;;;;;3.72;1.27;;;;;;;21.34;57.95;101218.53;1859417;76;22989;-90
2022/07/31 07:17:16;;;;;;;2.70;1.40;;;;;;;21.34;57.53;101222.98;1860562;76;21049;-92
2022/07/31 07:19:43;;;;;;;4.58;1.40;;;;;;;21.29;57.60;101215.48;1857618;76;21132;-92
2022/07/31 07:22:09;;;;;;;2.90;1.25;;;;;;;21.34;57.62;101222.55;1852935;76;21081;-92
2022/07/31 07:24:36;;;;;;;4.55;1.52;;;;;;;21.38;57.34;101214.03;1859614;76;21021;-91
2022/07/31 07:27:03;;;;;;;4.47;1.32;;;;;;;21.43;57.18;101217.52;1864909;76;21671;-90
2022/07/31 07:29:34;;;;;;;3.40;1.22;;;;;;;21.48;57.11;101210.81;1855193;76;22142;-91
2022/07/31 07:32:01;;;;;;;8.15;1.35;;;;;;;21.53;56.83;101212.98;1851248;76;21048;-91
2022/07/31 07:34:27;;;;;;;3.17;1.42;;;;;;;21.54;56.86;101237.51;1862429;76;21057;-90
2022/07/31 07:36:54;;;;;;;3.30;2.02;;;;;;;21.55;56.42;101217.87;1865961;76;21076;-91
2022/07/31 07:39:21;;;;;;;4.50;1.65;;;;;;;21.54;56.35;101209.38;1855776;76;22585;-90
2022/07/31 07:41:48;;;;;;;2.10;1.25;;;;;;;21.57;56.31;101205.34;1855695;76;22337;-91
2022/07/31 07:44:15;;;;;;;2.95;1.42;;;;;;;21.60;55.99;101215.11;1857020;76;21619;-90
2022/07/31 07:46:47;;;;;;;2.80;1.60;;;;;;;21.57;55.72;101213.80;1808118;78;21924;-91
2022/07/31 07:49:13;;;;;;;2.72;1.62;;;;;;;21.61;55.50;101227.62;1790388;79;21062;-91
2022/07/31 07:51:40;;;;;;;4.92;1.25;;;;;;;21.59;55.37;101212.90;1811499;78;22559;-90
2022/07/31 07:54:10;;;;;;;3.50;0.93;;;;;;;21.66;55.41;101214.59;1817696;78;21604;-90
2022/07/31 07:56:37;;;;;;;4.25;1.32;;;;;;;21.71;55.04;101205.14;1824189;78;21042;-90
2022/07/31 07:59:13;;;;;;;3.30;1.30;;;;;;;21.79;54.94;101212.64;1817305;78;21128;-90
2022/07/31 08:01:42;;;;;;;2.62;1.42;;;;;;;21.86;54.75;101202.70;1813361;78;21077;-89
2022/07/31 08:04:09;;;;;;;2.10;1.15;;;;;;;21.93;54.57;101215.10;1823907;78;21742;-90
2022/07/31 08:06:36;;;;;;;1.57;1.00;;;;;;;21.94;54.41;101215.09;1823763;78;21050;-91
2022/07/31 08:09:05;;;;;;;1.32;1.00;;;;;;;21.96;53.86;101206.13;1817680;78;21117;-90
2022/07/31 08:11:36;;;;;;;3.30;1.67;;;;;;;21.91;54.06;101208.42;1785709;78;21082;-91
2022/07/31 08:14:02;;;;;;;4.83;0.93;;;;;;;21.99;54.01;101211.45;1808871;78;21061;-90
2022/07/31 08:16:31;;;;;;;3.67;1.52;;;;;;;21.94;53.60;101206.14;1826195;78;21783;-90
2022/07/31 08:18:57;;;;;;;1.90;0.85;;;;;;;21.95;53.57;101210.61;1830840;78;21081;-89
2022/07/31 08:21:24;;;;;;;1.47;1.07;;;;;;;22.01;53.20;101209.63;1804102;78;21108;-90
2022/07/31 08:23:51;;;;;;;1.75;1.20;;;;;;;22.00;52.74;101216.80;1792907;78;21098;-90
2022/07/31 08:26:18;;;;;;;1.55;1.05;;;;;;;21.93;52.83;101211.08;1736500;81;21066;-90
2022/07/31 08:28:44;;;;;;;1.47;1.20;;;;;;;21.94;52.89;101215.52;1795054;79;21746;-90
2022/07/31 08:31:14;;;;;;;3.55;1.42;;;;;;;22.04;52.91;101214.95;1819640;78;21058;-90
2022/07/31 08:33:41;;;;;;;2.60;1.40;;;;;;;22.15;52.93;101214.33;1795163;79;21164;-90
2022/07/31 08:36:18;;;;;;;4.22;1.22;;;;;;;22.26;52.53;101215.52;1792673;78;21331;-91
2022/07/31 08:39:02;;;;;;;;;;;;;;;;;;;;;
2022/07/31 08:41:22;;;;;;;4.37;1.30;;;;;;;22.30;52.25;101207.41;1779863;78;21784;-91
2022/07/31 08:43:54;;;;;;;2.45;1.30;;;;;;;22.38;51.88;101213.98;1806497;78;21765;-90
2022/07/31 08:46:32;;;;;;;1.90;1.17;;;;;;;22.41;51.59;101214.38;1742153;81;21161;-91
2022/07/31 08:49:03;;;;;;;1.42;1.00;;;;;;;22.39;51.38;101217.55;1777912;78;21043;-90
2022/07/31 08:51:33;;;;;;;4.87;1.05;;;;;;;22.42;51.57;101224.22;1806025;78;22115;-91
2022/07/31 08:54:04;;;;;;;2.37;1.35;;;;;;;22.48;51.49;101218.73;1802139;78;21763;-90
2022/07/31 08:56:35;;;;;;;2.05;1.00;;;;;;;22.61;50.99;101226.13;1808863;78;21069;-91
2022/07/31 08:59:09;;;;;;;2.22;1.00;;;;;;;22.63;50.61;101226.98;1773949;78;21097;-91
2022/07/31 09:01:41;;;;;;;1.90;1.17;;;;;;;22.69;50.32;101224.19;1766400;80;21089;-90
2022/07/31 09:04:17;;;;;;;1.95;1.00;;;;;;;22.70;50.41;101236.70;1743545;80;21701;-91
2022/07/31 09:07:02;;;;;;;1.77;1.02;;;;;;;22.79;49.95;101236.54;1739993;80;22842;-91
2022/07/31 09:09:47;;;;;;;1.95;1.20;;;;;;;22.80;49.73;101235.61;1767023;79;21108;-90
2022/07/31 09:12:12;;;;;;;4.40;1.55;;;;;;;22.81;49.72;101232.49;1720470;80;21292;-90
2022/07/31 09:14:54;;;;;;;2.10;1.10;;;;;;;22.75;49.91;101233.48;1782843;79;21742;-91
2022/07/31 09:17:33;;;;;;;1.82;1.05;;;;;;;22.86;50.03;101235.95;1770657;80;21089;-90
2022/07/31 09:20:01;;;;;;;2.33;1.45;;;;;;;22.88;49.60;101231.01;1780968;79;22136;-91
2022/07/31 09:22:29;;;;;;;4.45;1.67;;;;;;;22.81;49.68;101247.25;1782008;80;21081;-90
2022/07/31 09:25:18;;;;;;;1.95;1.00;;;;;;;22.84;49.94;101238.70;1784331;78;21061;-90
2022/07/31 09:27:45;;;;;;;4.70;3.25;;;;;;;22.85;49.90;101236.89;1776011;79;21073;-90
2022/07/31 09:30:14;;;;;;;5.70;2.20;;;;;;;22.89;50.00;101230.54;1817558;78;21366;-90
2022/07/31 09:32:48;;;;;;;1.72;1.42;;;;;;;23.03;50.00;101224.50;1819130;78;21773;-90
2022/07/31 09:35:16;;;;;;;2.25;1.45;;;;;;;23.18;49.97;101235.84;1807565;78;21088;-90
2022/07/31 09:37:47;;;;;;;1.92;1.00;;;;;;;23.31;49.82;101234.67;1815690;78;21018;-90
2022/07/31 09:40:14;;;;;;;2.95;1.27;;;;;;;23.36;49.03;101242.66;1808308;78;21643;-90
2022/07/31 09:42:44;;;;;;;6.37;1.25;;;;;;;23.13;48.83;101242.66;1812690;78;21073;-91
2022/07/31 09:45:23;;;;;;;3.37;1.17;;;;;;;23.04;48.92;101238.80;1805345;78;21735;-91
2022/07/31 09:48:13;;;;;;;2.92;1.17;;;;;;;22.98;48.94;101238.42;1794140;79;22320;-90
2022/07/31 09:50:58;;;;;;;3.37;1.70;;;;;;;23.03;49.05;101235.64;1803609;78;22320;-90
2022/07/31 09:53:26;;;;;;;2.27;1.20;;;;;;;22.93;48.92;101234.06;1789498;78;21058;-90
2022/07/31 09:55:59;;;;;;;2.02;0.88;;;;;;;22.86;48.46;101232.84;1811910;78;21121;-90
2022/07/31 09:58:28;;;;;;;3.98;1.20;;;;;;;22.84;48.74;101233.76;1791464;78;21054;-90
2022/07/31 10:00:58;;;;;;;3.60;0.82;;;;;;;22.75;48.69;101229.47;1817401;78;21208;-90
2022/07/31 10:03:25;;;;;;;2.52;1.35;;;;;;;22.77;48.86;101240.14;1789695;78;21116;-91
2022/07/31 10:05:54;;;;;;;1.20;1.00;;;;;;;22.67;48.43;101234.06;1822481;78;22191;-90
2022/07/31 10:08:22;;;;;;;1.60;1.15;;;;;;;22.65;48.80;101227.38;1821891;78;21129;-90
2022/07/31 10:10:49;;;;;;;2.30;1.05;;;;;;;22.80;48.86;101228.02;1826934;78;21778;-90
2022/07/31 10:13:19;;;;;;;2.65;1.00;;;;;;;22.88;48.66;101231.01;1822531;78;21049;-90
2022/07/31 10:16:06;;;;;;;2.30;0.90;;;;;;;22.86;48.03;101239.55;1798360;78;21045;-90
2022/07/31 10:19:10;;;;;;;3.60;1.05;;;;;;;22.86;48.13;101227.91;1786671;79;21511;-91
2022/07/31 10:21:49;;;;;;;2.92;1.02;;;;;;;22.78;47.84;101213.28;1784564;78;21152;-90
2022/07/31 10:24:50;;;;;;;1.82;1.00;;;;;;;22.88;47.91;101224.73;1788600;78;21595;-89
2022/07/31 10:27:50;;;;;;;3.08;1.00;;;;;;;23.06;47.90;101219.05;1790041;78;21057;-89
2022/07/31 10:30:33;;;;;;;3.50;0.90;;;;;;;23.07;47.79;101212.78;1804526;78;22202;-89
2022/07/31 10:33:05;;;;;;;1.77;1.07;;;;;;;23.16;47.80;101205.02;1810991;78;21585;-90
2022/07/31 10:35:51;;;;;;;2.22;1.10;;;;;;;23.14;47.03;101224.73;1792643;78;21491;-90
2022/07/31 10:38:34;;;;;;;2.12;0.90;;;;;;;23.06;47.40;101215.02;1818767;78;22822;-90
2022/07/31 10:41:21;;;;;;;1.72;0.93;;;;;;;23.14;47.20;101215.34;1821399;78;21067;-90
2022/07/31 10:51:06;;;;;;;3.30;1.17;;;;;;;23.39;46.76;101210.37;1729711;81;21081;-90
2022/07/31 10:54:12;;;;;;;2.47;1.40;;;;;;;23.52;46.41;101216.34;1668821;84;21753;-90
2022/07/31 10:59:42;;;;;;;3.90;1.12;;;;;;;23.41;46.43;101204.03;1634518;84;21058;-90
2022/07/31 11:05:38;;;;;;;1.60;0.72;;;;;;;23.78;45.91;101208.62;1674522;83;21129;-89
2022/07/31 11:08:14;;;;;;;;;;;;;;;23.71;45.52;101207.45;1684123;84;21120;-89
2022/07/31 11:11:23;;;;;;;1.75;0.72;;;;;;;23.55;45.47;101205.54;1663785;84;20818;-89
2022/07/31 11:13:54;;;;;;;1.87;1.12;;;;;;;23.48;45.73;101194.94;1681403;83;21053;-89
2022/07/31 11:16:23;;;;;;;4.97;1.20;;;;;;;23.56;45.72;101197.92;1690061;83;21133;-89
2022/07/31 11:19:05;;;;;;;2.12;1.20;;;;;;;23.41;45.38;101216.59;1728962;81;21104;-88
2022/07/31 11:21:37;;;;;;;2.50;1.35;;;;;;;23.33;45.47;101208.70;1766589;79;22552;-88
2022/07/31 11:24:26;;;;;;;2.58;2.00;;;;;;;23.41;45.85;101208.06;1806747;78;21045;-88
2022/07/31 11:26:57;;;;;;;1.92;1.17;;;;;;;23.45;45.95;101207.08;1752850;78;21662;-88
2022/07/31 11:29:34;;;;;;;2.92;1.40;;;;;;;23.59;46.02;101211.27;1758753;79;21070;-88
2022/07/31 11:32:12;;;;;;;2.20;1.20;;;;;;;23.53;45.66;101201.54;1800027;78;21061;-89
2022/07/31 11:34:47;;;;;;;2.70;1.05;;;;;;;23.49;45.60;101218.19;1779166;78;21764;-88
2022/07/31 11:37:23;;;;;;;2.70;1.10;;;;;;;23.54;45.95;101207.79;1821545;78;20961;-89
2022/07/31 11:39:51;;;;;;;3.37;1.02;;;;;;;23.53;46.05;101200.20;1817975;78;21105;-89
2022/07/31 11:42:19;;;;;;;2.70;1.20;;;;;;;23.55;46.05;101207.77;1826305;78;21457;-88
2022/07/31 11:44:46;;;;;;;4.20;1.17;;;;;;;23.64;46.08;101205.34;1812189;78;20985;-88
2022/07/31 11:47:13;;;;;;;1.22;1.00;;;;;;;23.72;46.17;101200.67;1831165;78;21729;-88
2022/07/31 11:49:40;;;;;;;3.85;1.42;;;;;;;23.84;46.04;101199.09;1827182;78;20962;-88
2022/07/31 11:52:08;;;;;;;2.62;0.98;;;;;;;23.76;45.75;101190.73;1822892;78;21125;-89
2022/07/31 11:54:36;;;;;;;5.35;1.25;;;;;;;23.79;46.08;101197.44;1825174;78;21065;-89
2022/07/31 11:57:04;;;;;;;3.70;0.93;;;;;;;23.78;45.59;101200.56;1787871;79;21006;-88